Time;durP1;ratioP1;P1;durP2;ratioP2;P2;SDS_P1;SDS_P2;PMS_P1;PMS_P2;Temp;Humidity;BMP_temperature;BMP_pressure;BME280_temperature;BME280_humidity;BME280_pressure;Samples;Min_cycle;Max_cycle;Signal;HPM_P1;HPM_P2
2022/10/14 09:16:00;;;;;;;14.95;6.05;;;;;;;13.55;89.50;96546.13;2090876;28;20557;-69
2022/10/14 09:17:10;;;;;;;11.93;5.28;;;;;;;13.62;88.51;96556.25;2088626;28;20720;-70
2022/10/14 09:18:23;;;;;;;12.85;5.32;;;;;;;13.46;88.82;96524.81;2079028;28;20229;-70
2022/10/14 09:19:31;;;;;;;12.68;5.63;;;;;;;13.76;89.00;96555.47;2086055;28;20290;-72
2022/10/14 09:20:32;;;;;;;15.80;5.28;;;;;;;13.68;88.69;96524.44;2081711;28;20227;-72
2022/10/14 09:21:43;;;;;;;12.05;5.68;;;;;;;13.84;88.05;96540.09;2084009;28;20238;-72
2022/10/14 09:23:01;;;;;;;10.18;5.65;;;;;;;14.09;87.97;96557.00;2071253;28;20229;-72
2022/10/14 09:24:12;;;;;;;23.05;6.15;;;;;;;14.23;87.92;96548.28;2073448;28;20280;-72
2022/10/14 09:25:15;;;;;;;13.63;6.47;;;;;;;13.65;87.50;96520.22;2073694;28;20198;-72
2022/10/14 09:26:18;;;;;;;11.73;5.70;;;;;;;13.85;88.32;96554.91;2073935;28;20221;-72
2022/10/14 09:27:21;;;;;;;17.45;5.63;;;;;;;14.06;88.58;96549.34;2073752;28;20279;-72
2022/10/14 09:28:34;;;;;;;15.68;5.63;;;;;;;14.08;87.72;96540.44;2068766;28;20236;-72
2022/10/14 09:29:49;;;;;;;9.80;5.53;;;;;;;14.12;87.12;96541.91;2080825;28;20743;-72
2022/10/14 09:30:50;;;;;;;7.38;4.32;;;;;;;14.13;88.01;96540.13;2074167;28;20718;-72
2022/10/14 09:57:06;;;;;;;10.02;4.35;;;;;;;14.96;83.05;96521.03;2107277;27;20546;-72
2022/10/14 09:58:15;;;;;;;9.88;4.68;;;;;;;14.91;82.31;96512.59;2097395;27;20248;-70
2022/10/14 09:59:21;;;;;;;8.40;4.75;;;;;;;14.79;83.45;96507.19;2104982;28;20549;-69
2022/10/14 10:00:27;;;;;;;12.23;4.20;;;;;;;14.84;83.68;96507.72;2097591;28;20203;-70
2022/10/14 10:01:34;;;;;;;15.38;4.65;;;;;;;14.95;84.04;96520.16;2096424;28;20223;-71
2022/10/14 10:02:42;;;;;;;22.48;4.88;;;;;;;14.81;82.98;96504.44;2083846;28;20211;-70
2022/10/14 10:03:45;;;;;;;12.27;4.55;;;;;;;14.99;83.01;96518.19;2094610;28;20227;-70
2022/10/14 10:04:48;;;;;;;10.07;4.30;;;;;;;14.92;83.89;96516.88;2106309;28;20187;-70
2022/10/14 10:06:05;;;;;;;9.65;5.20;;;;;;;14.91;82.74;96513.44;2098494;28;20282;-69
2022/10/14 10:07:25;;;;;;;9.73;4.18;;;;;;;14.78;83.08;96520.38;2099138;28;20677;-70
2022/10/14 10:08:27;;;;;;;10.80;4.03;;;;;;;14.72;81.43;96511.13;2092841;28;20927;-70
2022/10/14 10:09:28;;;;;;;10.23;4.50;;;;;;;14.74;82.54;96505.75;2104196;28;20226;-70
2022/10/14 10:10:30;;;;;;;14.50;4.88;;;;;;;14.78;83.78;96508.09;2098743;28;20246;-69
2022/10/14 10:57:56;;;;;;;11.35;5.55;;;;;;;14.10;87.41;96478.16;2089880;27;20577;-68
2022/10/14 10:59:36;;;;;;;21.77;6.85;;;;;;;14.08;88.52;96481.81;2074710;28;20545;-72
2022/10/14 11:00:53;;;;;;;12.65;5.20;;;;;;;13.97;89.48;96459.69;2081470;28;20204;-72
2022/10/14 11:02:03;;;;;;;9.68;5.28;;;;;;;14.13;90.05;96477.09;2076859;28;20192;-72
2022/10/14 11:03:26;;;;;;;10.88;5.88;;;;;;;14.18;90.79;96469.78;2068378;28;20757;-74
2022/10/14 11:04:48;;;;;;;13.13;5.05;;;;;;;14.22;90.91;96468.69;2083151;28;20231;-75
2022/10/14 11:06:01;;;;;;;16.55;5.80;;;;;;;14.17;91.32;96461.09;2084113;28;20720;-76
2022/10/14 11:42:03;;;;;;;10.57;4.70;;;;;;;14.94;86.41;96420.38;2081900;28;20180;-73
2022/10/14 11:43:12;;;;;;;10.45;4.53;;;;;;;14.95;85.73;96416.81;2069675;28;20251;-73
2022/10/14 11:44:30;;;;;;;12.68;5.03;;;;;;;14.98;86.03;96420.06;2073143;28;20543;-75
2022/10/14 11:46:06;;;;;;;18.50;4.53;;;;;;;15.10;84.94;96426.28;2079289;28;20267;-75
2022/10/14 11:47:18;;;;;;;13.35;4.70;;;;;;;15.08;84.41;96412.41;2074604;28;20775;-73
2022/10/14 11:48:29;;;;;;;7.53;4.53;;;;;;;15.17;84.61;96413.56;2068155;28;20239;-77
2022/10/14 11:49:52;;;;;;;10.18;4.53;;;;;;;15.33;84.78;96410.75;2069612;28;20633;-74
2022/10/14 11:50:59;;;;;;;8.18;3.75;;;;;;;15.44;84.22;96400.34;2079214;28;20197;-74
2022/10/14 11:52:06;;;;;;;10.10;4.65;;;;;;;15.62;84.40;96407.94;2068868;28;20285;-74
2022/10/14 11:53:45;;;;;;;7.20;3.70;;;;;;;15.56;83.86;96403.94;2067592;28;20228;-74
2022/10/14 11:54:52;;;;;;;13.45;3.60;;;;;;;15.44;83.10;96381.09;2081221;28;20200;-76
2022/10/14 11:56:08;;;;;;;8.25;3.92;;;;;;;15.27;82.54;96383.06;2079833;28;20717;-74
2022/10/14 11:57:37;;;;;;;9.43;3.83;;;;;;;15.45;82.71;96402.06;2085847;28;20223;-74
2022/10/14 11:58:43;;;;;;;6.38;3.00;;;;;;;15.57;83.35;96399.53;2074748;28;20217;-74
2022/10/14 12:00:00;;;;;;;6.03;3.78;;;;;;;15.47;82.03;96388.78;2074909;28;20678;-75
2022/10/14 12:01:19;;;;;;;9.27;3.97;;;;;;;15.52;82.21;96395.41;2078321;28;20474;-74
2022/10/14 12:02:32;;;;;;;5.75;3.40;;;;;;;15.54;82.67;96389.19;2079673;28;20667;-74
2022/10/14 12:04:14;;;;;;;8.95;3.50;;;;;;;15.72;81.50;96380.03;2065699;28;20289;-73
2022/10/14 12:05:33;;;;;;;14.13;3.60;;;;;;;15.75;81.80;96377.19;2055240;28;20282;-74
2022/10/14 12:06:45;;;;;;;7.50;3.33;;;;;;;15.59;81.68;96382.69;2049973;28;20290;-77
2022/10/14 12:08:08;;;;;;;6.63;3.13;;;;;;;15.80;82.39;96382.97;2031147;29;20228;-76
2022/10/14 12:09:21;;;;;;;6.22;3.70;;;;;;;15.96;80.36;96380.13;2044704;28;20230;-73
2022/10/14 12:10:34;;;;;;;7.78;3.40;;;;;;;16.08;80.30;96378.41;2056019;28;20286;-74
2022/10/14 12:12:02;;;;;;;6.72;3.08;;;;;;;16.18;79.85;96380.41;2053840;28;20297;-74
2022/10/14 12:13:13;;;;;;;7.72;3.80;;;;;;;16.06;79.85;96359.28;2038340;28;20283;-74
2022/10/14 12:14:42;;;;;;;5.43;2.83;;;;;;;16.21;79.93;96369.66;2046851;28;20223;-73
2022/10/14 12:15:49;;;;;;;9.50;3.65;;;;;;;16.37;79.68;96382.56;2045460;28;20653;-73
2022/10/14 12:16:52;;;;;;;4.70;2.45;;;;;;;16.07;79.68;96376.72;2052080;28;20321;-72
2022/10/14 12:17:58;;;;;;;13.52;3.15;;;;;;;16.03;79.46;96382.34;2047366;28;20723;-70
2022/10/14 12:19:00;;;;;;;4.32;2.75;;;;;;;16.02;79.69;96375.38;2049025;28;20283;-71
2022/10/14 12:20:43;;;;;;;3.90;2.55;;;;;;;16.13;80.16;96388.63;2048002;28;20562;-71
2022/10/14 12:21:46;;;;;;;7.82;2.63;;;;;;;16.19;80.45;96372.41;2020415;29;20678;-72
2022/10/14 12:22:52;;;;;;;4.43;2.78;;;;;;;16.31;80.01;96368.84;2034592;28;20225;-72
2022/10/14 12:24:02;;;;;;;6.05;2.95;;;;;;;16.33;80.43;96379.31;2045695;28;20235;-72
2022/10/14 12:25:11;;;;;;;7.85;2.65;;;;;;;16.15;79.84;96369.13;2056101;28;20568;-72
2022/10/14 12:26:19;;;;;;;4.25;2.25;;;;;;;16.29;79.86;96377.81;2057092;28;20237;-72
2022/10/14 12:27:24;;;;;;;4.43;2.50;;;;;;;16.26;78.84;96362.25;2055891;28;20323;-72
2022/10/14 12:28:26;;;;;;;3.65;2.22;;;;;;;16.34;80.35;96367.81;2046824;28;20305;-73
2022/10/14 12:36:31;;;;;;;5.00;2.28;;;;;;;16.16;80.23;96359.44;2053337;28;20239;-73
2022/10/14 12:37:36;;;;;;;5.55;2.97;;;;;;;16.04;78.64;96355.06;2038186;28;20199;-72
2022/10/14 12:38:38;;;;;;;6.80;3.30;;;;;;;15.84;79.20;96338.88;2047571;28;20235;-70
2022/10/14 12:39:41;;;;;;;5.15;2.40;;;;;;;15.98;80.18;96348.44;2050218;28;20287;-74
2022/10/14 12:51:23;;;;;;;3.20;1.83;;;;;;;16.41;78.44;96341.84;2057837;27;1263136;-71
2022/10/14 12:52:29;;;;;;;4.57;1.70;;;;;;;16.52;77.70;96334.00;2096075;28;20523;-74
2022/10/14 12:53:32;;;;;;;3.97;1.52;;;;;;;17.18;76.04;96344.09;2089102;28;20318;-74
2022/10/14 12:54:36;;;;;;;2.13;1.30;;;;;;;17.06;75.15;96330.00;2088221;28;20253;-73
2022/10/14 12:55:48;;;;;;;5.45;1.65;;;;;;;17.02;75.44;96341.75;2086567;28;20243;-73
2022/10/14 12:57:04;;;;;;;5.85;1.90;;;;;;;16.54;76.77;96329.44;2094485;28;20230;-75
2022/10/14 12:58:06;;;;;;;3.40;1.42;;;;;;;16.45;76.51;96333.59;2083004;28;20242;-75
2022/10/14 12:59:19;;;;;;;8.18;1.60;;;;;;;16.39;77.28;96339.34;2096934;28;20322;-74
2022/10/14 13:00:21;;;;;;;8.88;2.10;;;;;;;16.56;77.89;96353.91;2088311;28;20317;-75
2022/10/14 13:01:22;;;;;;;2.80;1.50;;;;;;;16.56;77.29;96346.00;2089724;28;20279;-75
2022/10/14 13:02:24;;;;;;;6.03;1.35;;;;;;;16.52;76.73;96346.31;2089906;28;20593;-75
2022/10/14 13:03:31;;;;;;;4.57;1.40;;;;;;;16.32;77.69;96333.66;2067676;28;20227;-76
2022/10/14 13:04:33;;;;;;;1.85;1.40;;;;;;;16.32;77.70;96352.09;2082500;28;20295;-73
2022/10/14 13:05:38;;;;;;;2.90;1.52;;;;;;;16.22;78.81;96343.19;2085108;28;20549;-75
2022/10/14 13:06:41;;;;;;;2.20;1.15;;;;;;;16.32;78.16;96349.47;2083336;28;20259;-76
2022/10/14 13:07:44;;;;;;;5.22;1.50;;;;;;;16.18;78.59;96351.44;2079933;28;20208;-74
2022/10/14 13:09:11;;;;;;;2.67;1.15;;;;;;;16.06;77.97;96347.88;2083618;28;20203;-73
2022/10/14 13:10:38;;;;;;;2.95;1.48;;;;;;;15.89;78.63;96352.53;2083233;28;20201;-73
2022/10/14 13:11:50;;;;;;;3.05;1.75;;;;;;;15.88;79.10;96352.66;2080313;28;20243;-74
2022/10/14 13:12:52;;;;;;;2.70;1.25;;;;;;;15.79;79.11;96333.06;2077098;28;20646;-74
2022/10/14 13:13:59;;;;;;;2.90;1.17;;;;;;;15.93;78.95;96358.44;2083826;28;20204;-72
2022/10/14 13:15:24;;;;;;;5.25;1.70;;;;;;;15.86;79.40;96354.56;2083311;28;20235;-72
2022/10/14 13:16:25;;;;;;;16.42;7.88;;;;;;;15.78;79.80;96365.59;2082669;28;20201;-72
2022/10/14 14:25:11;;;;;;;3.23;1.77;;;;;;;14.06;97.85;96332.25;2070541;27;1238643;-84
2022/10/14 14:26:36;;;;;;;6.63;2.25;;;;;;;14.04;97.92;96334.13;2105983;28;20424;-84
2022/10/14 14:28:11;;;;;;;8.05;2.38;;;;;;;14.00;98.56;96338.72;2095057;28;20699;-84
2022/10/14 14:29:18;;;;;;;5.50;2.25;;;;;;;14.08;98.33;96332.16;2052178;28;20260;-84
2022/10/14 14:30:34;;;;;;;4.25;1.80;;;;;;;13.91;97.84;96312.25;2069918;28;20214;-84
2022/10/14 14:31:36;;;;;;;3.65;1.85;;;;;;;14.07;97.79;96335.72;2078516;28;20196;-84
